• Join FlightAware (Why Join?)
  • Login
  • US Flag 
10:30PM EDT


 

Airport Tracker/Info


-or-


 

Live Flight TrackerFlight Track Log ✈ MTN8308 ✈ 03-May-2013 ✈ KEWR - KBWI

Flight Track Log - Related Links

Times and Time Zones

All times are in EDT time to prevent confusion due to time zone crossing. See the MTN8308 flight status page for this flight to view local times or setup timezone preferences in your user account.

Time Position Orientation Groundspeed Altitude Reporting Facility
EDT Latitude Longitude Course Direction KTS MPH feet Rate Location/Type
03:22AM 40.7000 -74.1500 360° North 83 96 800  Level New York TRACON
03:23AM 40.7167 -74.1500 360° North 106 122 1,500 780 Climbing New York TRACON
03:24AM 40.7167 -74.1833 270° West 119 137 2,300 780 Climbing New York TRACON
03:25AM 40.6833 -74.2333 229° Southwest 136 157 3,100 840 Climbing New York TRACON
03:26AM 40.6667 -74.2667 237° Southwest 128 147 4,000 480 Climbing New York TRACON
03:27AM 40.6333 -74.3000 217° Southwest 153 176 4,100  Climbing New York TRACON
03:28AM 40.6000 -74.3500 229° Southwest 170 196 4,100  Level New York TRACON
03:29AM 40.5833 -74.4000 246° West 172 198 4,100  Level New York TRACON
03:30AM 40.5500 -74.4500 229° Southwest 174 200 4,100  Level New York TRACON
03:31AM 40.5167 -74.5000 229° Southwest 174 200 4,100  Level New York TRACON
03:32AM 40.4833 -74.5500 229° Southwest 174 200 4,100  Level New York TRACON
03:33AM 40.4500 -74.6000 229° Southwest 177 204 4,100 -120 Level New York TRACON
03:34AM 40.4000 -74.6667 225° Southwest 173 199 3,900 -60 Descending Philadelphia TRACON
03:35AM 40.3667 -74.7167 229° Southwest 171 197 4,000  Climbing Philadelphia TRACON
03:36AM 40.3333 -74.7667 229° Southwest 173 199 4,000  Level Philadelphia TRACON
03:37AM 40.3167 -74.8167 246° West 170 196 4,000  Level Philadelphia TRACON
03:38AM 40.2833 -74.8500 217° Southwest 169 194 4,000  Level Philadelphia TRACON
03:39AM 40.2500 -74.9000 229° Southwest 168 193 4,000  Level Philadelphia TRACON
03:40AM 40.2167 -74.9500 229° Southwest 169 194 4,000  Level Philadelphia TRACON
03:41AM 40.2000 -75.0000 246° West 170 196 4,000  Level Philadelphia TRACON
03:42AM 40.1667 -75.0500 229° Southwest 171 197 4,000  Level Philadelphia TRACON
03:43AM 40.1333 -75.1000 229° Southwest 168 193 4,000  Level Philadelphia TRACON
03:44AM 40.1167 -75.1500 246° West 169 194 4,000  Level Philadelphia TRACON
03:45AM 40.0833 -75.2000 229° Southwest 168 193 4,000  Level Philadelphia TRACON
03:46AM 40.0500 -75.2500 229° Southwest 169 194 4,000  Level Philadelphia TRACON
03:47AM 40.0167 -75.3000 229° Southwest 170 196 4,000  Level Philadelphia TRACON
03:48AM 40.0000 -75.3500 246° West 170 196 4,000  Level Philadelphia TRACON
03:49AM 39.9667 -75.3833 217° Southwest 169 194 4,000  Level Philadelphia TRACON
03:50AM 39.9333 -75.4333 229° Southwest 168 193 4,000  Level Philadelphia TRACON
03:51AM 39.9000 -75.4833 229° Southwest 168 193 4,000  Level Philadelphia TRACON
03:52AM 39.8833 -75.5333 247° West 171 197 4,000  Level Philadelphia TRACON
03:53AM 39.8500 -75.5833 229° Southwest 170 196 4,000  Level Philadelphia TRACON
03:54AM 39.8167 -75.6333 229° Southwest 170 196 4,000  Level Philadelphia TRACON
03:55AM 39.7833 -75.6833 229° Southwest 168 193 4,000  Level Philadelphia TRACON
03:56AM 39.7667 -75.7333 247° West 171 197 4,000  Level Philadelphia TRACON
03:59AM 39.7000 -75.8333 229° Southwest 170 196 4,000  Level Potomac TRACON
04:00AM 39.6667 -75.8833 229° Southwest 170 196 4,000  Level Potomac TRACON
04:01AM 39.6333 -75.9333 229° Southwest 172 198 4,000  Level Potomac TRACON
04:02AM 39.6167 -75.9833 247° West 170 196 4,000  Level Potomac TRACON
04:03AM 39.6000 -76.0333 247° West 171 197 4,000  Level Potomac TRACON
04:04AM 39.5667 -76.1000 237° Southwest 170 196 4,000  Level Potomac TRACON
04:05AM 39.5500 -76.1500 247° West 172 198 4,000  Level Potomac TRACON
04:06AM 39.5167 -76.2000 229° Southwest 173 199 4,000  Level Potomac TRACON
04:07AM 39.5000 -76.2500 247° West 170 196 4,000  Level Potomac TRACON
04:08AM 39.4667 -76.3000 229° Southwest 173 199 4,000  Level Potomac TRACON
04:09AM 39.4333 -76.3500 229° Southwest 172 198 4,000 -60 Level Potomac TRACON
04:10AM 39.4000 -76.4000 229° Southwest 172 198 3,900 -240 Descending Potomac TRACON
04:11AM 39.3667 -76.4500 229° Southwest 180 207 3,600 -300 Descending Potomac TRACON
04:12AM 39.3333 -76.4833 218° Southwest 177 204 3,300 -420 Descending Potomac TRACON
04:13AM 39.3000 -76.5500 237° Southwest 183 211 2,800 -600 Descending Potomac TRACON
04:14AM 39.2667 -76.5833 218° Southwest 179 206 2,200 -720 Descending Potomac TRACON
04:15AM 39.2333 -76.6333 229° Southwest 168 193 1,400 -840 Descending Potomac TRACON
04:16AM 39.2000 -76.6667 218° Southwest 131 151 600 -840 Descending Potomac TRACON
04:18AM 39.1754 -76.6683 270° West  Level Estimated
04:25AM 39.1754 -76.6683 270° West  Level Estimated
04:26AM 39.1754 -76.6683 270° West  Level Estimated